createdAt,value
2017-12-14T00:01:28.248Z,4.83
2017-12-14T00:03:56.099Z,4.50
2017-12-14T00:06:24.112Z,5.30
2017-12-14T00:08:52.010Z,5.70
2017-12-14T00:11:19.895Z,5.20
2017-12-14T00:13:47.744Z,4.63
2017-12-14T00:16:15.617Z,5.60
2017-12-14T00:18:43.462Z,4.53
2017-12-14T00:21:11.338Z,4.30
2017-12-14T00:23:39.212Z,3.80
2017-12-14T00:26:07.062Z,3.73
2017-12-14T00:28:34.922Z,3.70
2017-12-14T00:31:02.819Z,3.40
2017-12-14T00:33:30.665Z,4.37
2017-12-14T00:35:58.508Z,3.40
2017-12-14T00:38:26.411Z,3.83
2017-12-14T00:40:54.324Z,3.77
2017-12-14T00:43:22.183Z,4.10
2017-12-14T00:45:50.067Z,2.90
2017-12-14T00:48:17.944Z,3.87
2017-12-14T00:50:45.892Z,6.00
2017-12-14T00:53:13.807Z,3.33
2017-12-14T00:55:41.793Z,3.57
2017-12-14T00:58:09.631Z,2.77
2017-12-14T01:00:37.501Z,3.03
2017-12-14T01:03:05.372Z,2.87
2017-12-14T01:05:33.219Z,7.37
2017-12-14T01:08:01.105Z,3.03
2017-12-14T01:10:28.994Z,3.50
2017-12-14T01:12:56.869Z,3.27
2017-12-14T01:15:24.743Z,3.37
2017-12-14T01:17:52.597Z,3.30
2017-12-14T01:20:20.474Z,2.93
2017-12-14T01:22:48.404Z,2.30
2017-12-14T01:25:16.243Z,3.17
2017-12-14T01:27:44.094Z,3.70
2017-12-14T01:30:12.032Z,4.17
2017-12-14T01:32:39.910Z,5.30
2017-12-14T01:35:07.773Z,6.53
2017-12-14T01:37:35.761Z,9.77
2017-12-14T01:40:03.692Z,3.60
2017-12-14T01:42:31.601Z,3.80
2017-12-14T01:44:59.488Z,3.37
2017-12-14T01:47:27.337Z,4.80
2017-12-14T01:49:55.196Z,5.00
2017-12-14T01:52:23.076Z,5.20
2017-12-14T01:54:51.060Z,7.20
2017-12-14T01:57:18.935Z,5.50
2017-12-14T01:59:46.890Z,8.10
2017-12-14T02:02:14.747Z,4.23
2017-12-14T02:04:42.640Z,5.20
2017-12-14T02:07:10.525Z,6.80
2017-12-14T02:09:38.430Z,6.20
2017-12-14T02:12:06.319Z,6.87
2017-12-14T02:14:34.280Z,5.27
2017-12-14T02:17:02.192Z,7.07
2017-12-14T02:19:30.128Z,7.00
2017-12-14T02:21:58.026Z,6.57
2017-12-14T02:24:25.884Z,7.60
2017-12-14T02:26:53.774Z,6.50
2017-12-14T02:29:21.771Z,8.00
2017-12-14T02:31:49.754Z,7.20
2017-12-14T02:34:17.604Z,4.60
2017-12-14T02:36:45.300Z,6.90
2017-12-14T02:39:11.557Z,7.03
2017-12-14T02:41:38.414Z,5.13
2017-12-14T02:44:05.388Z,7.83
2017-12-14T02:46:31.534Z,11.63
2017-12-14T02:48:57.698Z,5.83
2017-12-14T02:51:23.830Z,5.57
2017-12-14T02:53:49.910Z,6.53
2017-12-14T02:56:16.163Z,6.10
2017-12-14T02:58:43.037Z,5.07
2017-12-14T03:01:09.904Z,7.53
2017-12-14T03:03:36.051Z,5.93
2017-12-14T03:06:02.551Z,6.03
2017-12-14T03:08:28.667Z,5.93
2017-12-14T03:10:54.814Z,10.73
2017-12-14T03:13:20.924Z,7.50
2017-12-14T03:15:47.045Z,6.80
2017-12-14T03:18:13.141Z,6.33
2017-12-14T03:20:41.034Z,7.30
2017-12-14T03:23:08.937Z,9.17
2017-12-14T03:25:36.792Z,5.70
2017-12-14T03:28:04.676Z,5.53
2017-12-14T03:30:32.561Z,6.97
2017-12-14T03:33:00.487Z,5.07
2017-12-14T03:35:28.368Z,4.27
2017-12-14T03:37:56.243Z,4.63
2017-12-14T03:40:24.121Z,6.20
2017-12-14T03:42:52.010Z,5.60
2017-12-14T03:45:19.856Z,5.93
2017-12-14T03:47:47.748Z,4.43
2017-12-14T03:50:15.619Z,4.00
2017-12-14T03:52:43.483Z,4.30
2017-12-14T03:55:11.346Z,3.70
2017-12-14T03:57:39.313Z,4.23
2017-12-14T04:00:07.164Z,3.57
2017-12-14T04:02:35.052Z,3.63
2017-12-14T04:05:02.953Z,3.33
2017-12-14T04:07:30.906Z,3.60
2017-12-14T04:09:58.818Z,3.30
2017-12-14T04:12:26.685Z,3.20
2017-12-14T04:14:54.529Z,2.90
2017-12-14T04:17:22.433Z,2.37
2017-12-14T04:19:50.364Z,2.87
2017-12-14T04:22:18.289Z,2.33
2017-12-14T04:24:46.143Z,2.50
2017-12-14T04:27:14.050Z,2.60
2017-12-14T04:29:41.905Z,2.00
2017-12-14T04:32:09.771Z,2.07
2017-12-14T04:34:37.665Z,4.10
2017-12-14T04:37:05.583Z,2.23
2017-12-14T04:39:33.438Z,1.80
2017-12-14T04:42:01.321Z,1.90
2017-12-14T04:44:29.185Z,2.00
2017-12-14T04:46:57.024Z,1.43
2017-12-14T04:49:24.900Z,2.10
2017-12-14T04:51:52.760Z,1.43
2017-12-14T04:54:20.656Z,2.97
2017-12-14T04:56:48.531Z,1.70
2017-12-14T04:59:16.404Z,1.50
2017-12-14T05:01:44.309Z,1.80
2017-12-14T05:04:12.185Z,1.83
2017-12-14T05:06:40.146Z,1.83
2017-12-14T05:09:08.154Z,1.60
2017-12-14T05:11:36.024Z,1.73
2017-12-14T05:14:03.887Z,2.17
2017-12-14T05:16:31.752Z,2.97
2017-12-14T05:18:59.744Z,2.80
2017-12-14T05:21:27.612Z,2.50
2017-12-14T05:23:55.538Z,2.00
2017-12-14T05:26:23.449Z,1.60
2017-12-14T05:28:51.301Z,1.67
2017-12-14T05:31:19.254Z,1.60
2017-12-14T06:55:45.049Z,3.73
2017-12-14T06:58:12.958Z,4.07
2017-12-14T07:00:40.795Z,4.50
2017-12-14T07:03:14.800Z,3.50
2017-12-14T07:05:42.760Z,6.53
2017-12-14T07:08:10.665Z,7.13
2017-12-14T07:10:38.531Z,9.80
2017-12-14T07:13:06.373Z,4.53
2017-12-14T07:15:34.280Z,5.37
2017-12-14T07:18:02.155Z,6.33
2017-12-14T07:20:30.032Z,4.10
2017-12-14T07:22:57.884Z,6.97
2017-12-14T07:25:25.775Z,12.00
2017-12-14T07:27:53.635Z,7.50
2017-12-14T07:30:21.463Z,5.67
2017-12-14T07:32:49.344Z,6.20
2017-12-14T07:35:17.291Z,6.63
2017-12-14T07:37:45.115Z,4.97
2017-12-14T07:40:13.089Z,5.57
2017-12-14T07:42:47.043Z,8.20
2017-12-14T07:45:20.938Z,5.53
2017-12-14T07:47:55.320Z,6.27
2017-12-14T07:50:23.197Z,6.83
2017-12-14T07:52:51.225Z,5.00
2017-12-14T07:55:19.127Z,8.10
2017-12-14T07:57:47.021Z,8.17
2017-12-14T08:00:14.878Z,7.03
2017-12-14T08:02:42.749Z,9.33
2017-12-14T08:05:10.641Z,8.00
2017-12-14T08:07:38.509Z,4.43
2017-12-14T08:10:06.452Z,7.47
2017-12-14T08:12:34.430Z,3.60
2017-12-14T08:15:02.309Z,10.00
2017-12-14T08:20:29.193Z,6.50
2017-12-14T08:22:57.015Z,3.00
2017-12-14T08:25:24.964Z,3.80
2017-12-14T08:27:52.831Z,4.53
2017-12-14T08:30:20.675Z,8.90
2017-12-14T08:32:48.520Z,4.97
2017-12-14T08:35:16.400Z,5.50
2017-12-14T08:37:44.247Z,5.53
2017-12-14T08:40:12.159Z,6.13
2017-12-14T08:42:40.210Z,3.63
2017-12-14T08:45:08.055Z,4.90
2017-12-14T08:47:35.941Z,3.13
2017-12-14T08:50:03.841Z,3.37
2017-12-14T08:52:31.707Z,3.50
2017-12-14T08:54:59.640Z,3.77
2017-12-14T08:57:27.541Z,5.27
2017-12-14T08:59:55.427Z,5.13
2017-12-14T09:02:23.310Z,5.30
2017-12-14T09:04:51.269Z,4.00
2017-12-14T09:07:19.279Z,6.07
2017-12-14T09:09:47.115Z,7.27
2017-12-14T09:12:15.011Z,5.00
2017-12-14T09:14:42.995Z,6.70
2017-12-14T09:17:10.888Z,7.67
2017-12-14T09:19:38.852Z,6.33
2017-12-14T09:22:06.735Z,7.10
2017-12-14T09:24:34.653Z,4.23
2017-12-14T09:27:02.532Z,3.03
2017-12-14T09:29:30.376Z,2.73
2017-12-14T09:31:58.375Z,3.50
2017-12-14T09:34:26.353Z,5.07
2017-12-14T09:36:54.252Z,9.17
2017-12-14T09:39:22.160Z,6.80
2017-12-14T09:41:50.073Z,5.87
2017-12-14T09:44:17.938Z,8.70
2017-12-14T09:46:45.875Z,6.37
2017-12-14T09:49:13.847Z,5.40
2017-12-14T09:51:41.692Z,3.50
2017-12-14T09:54:09.549Z,6.23
2017-12-14T09:56:37.436Z,6.90
2017-12-14T09:59:05.296Z,7.47
2017-12-14T10:01:33.264Z,3.67
2017-12-14T10:04:01.191Z,3.60
2017-12-14T10:06:29.129Z,3.97
2017-12-14T10:08:56.981Z,4.27
2017-12-14T10:11:24.867Z,3.13
2017-12-14T10:13:52.748Z,4.20
2017-12-14T10:16:20.616Z,4.47
2017-12-14T10:18:48.519Z,4.53
2017-12-14T10:21:16.392Z,6.20
2017-12-14T10:23:44.248Z,7.30
2017-12-14T10:26:12.120Z,5.70
2017-12-14T10:28:40.117Z,5.97
2017-12-14T10:31:08.025Z,4.50
2017-12-14T10:33:35.900Z,3.87
2017-12-14T10:36:03.747Z,4.30
2017-12-14T10:38:31.588Z,7.80
2017-12-14T10:40:59.588Z,8.87
2017-12-14T10:43:27.433Z,4.00
2017-12-14T10:45:55.299Z,4.23
2017-12-14T10:48:23.220Z,5.00
2017-12-14T10:50:51.106Z,8.80
2017-12-14T10:53:20.016Z,6.27
2017-12-14T10:55:47.940Z,6.70
2017-12-14T10:58:15.784Z,4.53
2017-12-14T11:00:49.791Z,5.33
2017-12-14T11:03:17.675Z,8.13
2017-12-14T11:05:45.547Z,3.43
2017-12-14T11:08:13.417Z,9.40
2017-12-14T11:10:41.441Z,8.47
2017-12-14T11:13:09.301Z,5.07
2017-12-14T11:15:37.169Z,4.40
2017-12-14T11:18:05.029Z,8.93
2017-12-14T11:20:32.873Z,3.10
2017-12-14T11:23:00.732Z,10.33
2017-12-14T11:25:28.592Z,10.20
2017-12-14T11:27:56.462Z,6.50
2017-12-14T11:30:24.373Z,7.20
2017-12-14T11:32:52.249Z,5.93
2017-12-14T11:35:20.124Z,4.33
2017-12-14T11:37:48.042Z,2.20
2017-12-14T11:40:15.881Z,5.13
2017-12-14T11:42:43.703Z,7.00
2017-12-14T11:45:11.593Z,2.07
2017-12-14T11:47:39.985Z,3.00
2017-12-14T11:50:07.855Z,6.00
2017-12-14T11:52:35.760Z,3.80
2017-12-14T11:55:03.607Z,1.93
2017-12-14T11:57:31.543Z,1.57
2017-12-14T11:59:59.477Z,3.43
2017-12-14T12:02:27.359Z,6.40
2017-12-14T12:04:55.239Z,4.70
2017-12-14T12:07:23.114Z,2.57
2017-12-14T12:09:50.986Z,3.50
2017-12-14T12:12:18.824Z,3.73
2017-12-14T12:14:46.716Z,5.10
2017-12-14T12:17:14.568Z,2.77
2017-12-14T12:19:42.420Z,2.50
2017-12-14T12:22:10.335Z,4.83
2017-12-14T12:24:38.227Z,2.27
2017-12-14T12:27:06.040Z,2.23
2017-12-14T12:29:33.899Z,1.80
2017-12-14T12:32:01.755Z,5.53
2017-12-14T12:34:29.602Z,2.53
2017-12-14T12:36:57.458Z,1.80
2017-12-14T12:39:25.324Z,1.60
2017-12-14T12:41:53.199Z,2.97
2017-12-14T12:44:21.077Z,4.73
2017-12-14T12:46:48.900Z,3.47
2017-12-14T12:49:16.781Z,2.83
2017-12-14T12:51:44.661Z,2.97
2017-12-14T12:54:12.504Z,2.00
2017-12-14T12:56:40.408Z,2.67
2017-12-14T12:59:08.303Z,3.53
2017-12-14T13:01:36.159Z,2.83
2017-12-14T13:04:04.000Z,3.00
2017-12-14T13:06:31.906Z,3.80
2017-12-14T13:08:59.773Z,3.00
2017-12-14T13:11:27.599Z,4.30
2017-12-14T13:13:55.454Z,2.00
2017-12-14T13:16:23.296Z,5.07
2017-12-14T13:18:51.143Z,3.90
2017-12-14T13:21:19.009Z,2.50
2017-12-14T13:23:46.864Z,3.40
2017-12-14T13:26:14.695Z,2.10
2017-12-14T13:28:42.568Z,2.43
2017-12-14T13:31:10.423Z,2.70
2017-12-14T13:33:38.261Z,4.30
2017-12-14T13:36:06.136Z,4.70
2017-12-14T13:38:33.995Z,2.47
2017-12-14T13:41:01.836Z,2.90
2017-12-14T13:43:29.694Z,5.00
2017-12-14T13:45:57.573Z,3.80
2017-12-14T13:48:25.439Z,3.63
2017-12-14T13:50:53.326Z,6.67
2017-12-14T13:53:21.203Z,6.90
2017-12-14T13:55:49.139Z,2.50
2017-12-14T13:58:17.037Z,4.47
2017-12-14T14:00:44.900Z,3.83
2017-12-14T14:03:12.754Z,6.83
2017-12-14T14:05:40.651Z,4.80
2017-12-14T14:08:08.987Z,5.67
2017-12-14T14:10:36.820Z,3.10
2017-12-14T14:13:04.717Z,9.67
2017-12-14T14:15:32.564Z,5.97
2017-12-14T14:18:00.526Z,2.50
2017-12-14T14:20:28.491Z,5.63
2017-12-14T14:22:56.332Z,3.80
2017-12-14T14:25:24.269Z,3.47
2017-12-14T14:27:52.182Z,3.47
2017-12-14T14:30:20.107Z,3.70
2017-12-14T14:32:47.983Z,4.70
2017-12-14T14:35:15.894Z,4.33
2017-12-14T14:37:43.749Z,10.73
2017-12-14T14:40:11.620Z,8.53
2017-12-14T14:42:39.504Z,4.40
2017-12-14T14:45:07.404Z,7.13
2017-12-14T14:47:35.317Z,7.10
2017-12-14T14:50:03.216Z,9.97
2017-12-14T14:52:31.186Z,8.13
2017-12-14T14:54:59.076Z,6.50
2017-12-14T14:57:26.960Z,8.07
2017-12-14T14:59:54.819Z,7.87
2017-12-14T15:02:22.683Z,4.53
2017-12-14T15:04:50.697Z,5.90
2017-12-14T15:07:19.539Z,9.90
2017-12-14T15:09:47.400Z,2.70
2017-12-14T15:12:15.345Z,6.60
2017-12-14T15:14:43.252Z,4.43
2017-12-14T15:17:11.111Z,3.97
2017-12-14T15:19:38.992Z,5.30
2017-12-14T15:22:08.117Z,5.63
2017-12-14T15:24:35.964Z,7.60
2017-12-14T15:27:03.865Z,6.50
2017-12-14T15:29:31.691Z,10.37
2017-12-14T15:31:59.591Z,4.50
2017-12-14T15:34:27.488Z,5.40
2017-12-14T15:36:55.389Z,9.73
2017-12-14T15:39:23.263Z,4.53
2017-12-14T15:41:51.159Z,17.33
2017-12-14T15:44:19.029Z,3.73
2017-12-14T15:46:46.917Z,8.53
2017-12-14T15:49:14.804Z,7.10
2017-12-14T15:51:42.639Z,6.10
2017-12-14T15:54:10.488Z,5.53
2017-12-14T15:56:38.361Z,6.90
2017-12-14T15:59:06.199Z,5.53
2017-12-14T16:01:34.064Z,5.10
2017-12-14T16:04:01.971Z,3.30
2017-12-14T16:06:29.831Z,4.43
2017-12-14T16:08:57.699Z,4.33
2017-12-14T16:11:25.746Z,8.83
2017-12-14T16:13:53.623Z,3.50
2017-12-14T16:16:21.496Z,6.50
2017-12-14T16:18:49.411Z,6.33
2017-12-14T16:21:17.259Z,6.50
2017-12-14T16:23:45.252Z,7.40
2017-12-14T16:26:13.113Z,7.70
2017-12-14T16:28:40.985Z,6.50
2017-12-14T16:31:08.839Z,7.50
2017-12-14T16:33:36.728Z,8.80
2017-12-14T16:36:04.638Z,5.77
2017-12-14T16:38:32.529Z,10.90
2017-12-14T16:41:00.487Z,11.00
2017-12-14T16:43:28.387Z,12.20
2017-12-14T16:45:56.255Z,7.53
2017-12-14T16:48:24.164Z,13.80
2017-12-14T16:50:52.028Z,12.50
2017-12-14T16:53:19.878Z,8.17
2017-12-14T16:55:47.815Z,18.60
2017-12-14T16:58:15.681Z,11.00
2017-12-14T17:00:43.583Z,15.67
2017-12-14T17:03:11.460Z,29.33
2017-12-14T17:05:39.332Z,27.60
2017-12-14T17:08:07.241Z,12.90
2017-12-14T17:10:35.204Z,12.43
2017-12-14T17:13:03.170Z,13.13
2017-12-14T17:15:31.068Z,10.53
2017-12-14T17:17:59.013Z,8.00
2017-12-14T17:20:26.899Z,10.27
2017-12-14T17:22:54.772Z,4.63
2017-12-14T17:25:22.672Z,20.00
2017-12-14T17:27:48.804Z,29.67
2017-12-14T17:30:14.950Z,26.73
2017-12-14T17:32:41.089Z,25.90
2017-12-14T17:35:07.377Z,19.37
2017-12-14T17:37:34.477Z,16.20
2017-12-14T17:40:00.698Z,19.73
2017-12-14T17:42:26.812Z,15.80
2017-12-14T17:44:53.593Z,16.40
2017-12-14T17:47:20.461Z,11.40
2017-12-14T17:49:47.327Z,17.43
2017-12-14T17:52:13.489Z,23.93
2017-12-14T17:54:39.710Z,19.90
2017-12-14T17:57:07.679Z,20.90
2017-12-14T17:59:35.539Z,14.43
2017-12-14T18:02:03.786Z,13.60
2017-12-14T18:04:31.749Z,11.40
2017-12-14T18:06:59.634Z,13.60
2017-12-14T18:09:27.617Z,9.13
2017-12-14T18:11:55.453Z,10.73
2017-12-14T18:14:23.340Z,13.70
2017-12-14T18:16:51.231Z,11.10
2017-12-14T18:19:20.100Z,14.57
2017-12-14T18:21:47.972Z,11.53
2017-12-14T18:24:15.864Z,12.07
2017-12-14T18:26:43.711Z,15.93
2017-12-14T18:29:11.565Z,11.97
2017-12-14T18:31:39.808Z,12.23
2017-12-14T18:34:07.700Z,12.13
2017-12-14T18:36:35.799Z,13.20
2017-12-14T18:39:03.704Z,10.43
2017-12-14T18:41:31.593Z,13.27
2017-12-14T18:43:59.435Z,11.97
2017-12-14T18:46:27.852Z,10.60
2017-12-14T18:48:55.868Z,7.03
2017-12-14T18:51:23.843Z,9.23
2017-12-14T18:53:51.833Z,10.83
2017-12-14T18:56:20.025Z,8.07
2017-12-14T18:58:47.943Z,17.57
2017-12-14T19:01:15.853Z,11.27
2017-12-14T19:03:43.815Z,12.33
2017-12-14T19:06:11.798Z,12.03
2017-12-14T19:08:39.763Z,11.50
2017-12-14T19:11:07.688Z,17.77
2017-12-14T19:13:35.580Z,12.60
2017-12-14T19:16:03.501Z,12.70
2017-12-14T19:18:31.435Z,10.10
2017-12-14T19:20:59.313Z,11.40
2017-12-14T19:23:27.292Z,9.77
2017-12-14T19:25:55.268Z,13.07
2017-12-14T19:28:23.188Z,5.17
2017-12-14T19:30:51.106Z,8.87
2017-12-14T19:33:18.952Z,11.77
2017-12-14T19:35:46.953Z,9.03
2017-12-14T19:38:14.913Z,12.33
2017-12-14T19:40:42.832Z,7.90
2017-12-14T19:43:10.708Z,14.17
2017-12-14T19:45:38.602Z,8.57
2017-12-14T19:48:06.502Z,8.70
2017-12-14T19:50:34.417Z,13.63
2017-12-14T19:53:02.476Z,14.57
2017-12-14T19:55:30.580Z,10.40
2017-12-14T19:57:58.433Z,9.70
2017-12-14T20:00:27.076Z,9.67
2017-12-14T20:02:54.957Z,13.97
2017-12-14T20:05:22.820Z,9.10
2017-12-14T20:07:50.753Z,20.67
2017-12-14T20:10:18.929Z,9.50
2017-12-14T20:12:47.409Z,13.87
2017-12-14T20:15:15.334Z,13.87
2017-12-14T20:17:43.246Z,16.17
2017-12-14T20:20:11.148Z,12.00
2017-12-14T20:22:39.096Z,19.43
2017-12-14T20:25:07.098Z,16.57
2017-12-14T20:27:35.138Z,16.30
2017-12-14T20:30:03.087Z,22.80
2017-12-14T20:32:31.093Z,16.87
2017-12-14T20:34:58.983Z,18.23
2017-12-14T20:37:27.021Z,13.80
2017-12-14T20:39:54.955Z,13.60
2017-12-14T20:42:22.812Z,15.03
2017-12-14T20:47:25.295Z,17.37
2017-12-14T20:49:53.209Z,13.73
2017-12-14T20:52:21.226Z,10.23
2017-12-14T20:54:50.607Z,13.27
2017-12-14T20:57:19.436Z,11.63
2017-12-14T20:59:47.613Z,11.30
2017-12-14T21:02:15.477Z,13.37
2017-12-14T21:04:43.452Z,14.47
2017-12-14T21:07:11.436Z,9.37
2017-12-14T21:09:39.420Z,15.87
2017-12-14T21:12:07.313Z,11.33
2017-12-14T21:14:35.218Z,12.10
2017-12-14T21:17:03.133Z,9.90
2017-12-14T21:19:31.045Z,14.73
2017-12-14T21:21:58.940Z,14.33
2017-12-14T21:24:26.819Z,14.30
2017-12-14T21:26:54.741Z,11.77
2017-12-14T21:29:22.652Z,17.67
2017-12-14T21:31:50.504Z,16.83
2017-12-14T21:34:18.408Z,22.27
2017-12-14T21:36:46.317Z,9.60
2017-12-14T21:39:14.202Z,9.20
2017-12-14T21:41:42.091Z,13.23
2017-12-14T21:44:09.956Z,8.33
2017-12-14T21:46:37.888Z,13.80
2017-12-14T21:49:05.799Z,7.10
2017-12-14T21:51:33.818Z,13.40
2017-12-14T21:54:01.708Z,13.77
2017-12-14T21:56:29.614Z,11.53
2017-12-14T21:58:57.515Z,9.97
2017-12-14T22:01:25.384Z,8.23
2017-12-14T22:03:53.300Z,7.07
2017-12-14T22:06:21.201Z,9.80
2017-12-14T22:08:49.072Z,13.20
2017-12-14T22:11:16.948Z,11.13
2017-12-14T22:13:44.823Z,8.20
2017-12-14T22:16:12.684Z,6.20
2017-12-14T22:18:40.580Z,8.90
2017-12-14T22:21:09.532Z,11.70
2017-12-14T22:23:37.443Z,12.13
2017-12-14T22:26:05.320Z,10.07
2017-12-14T22:28:33.209Z,9.10
2017-12-14T22:31:01.154Z,10.30
2017-12-14T22:33:29.055Z,10.67
2017-12-14T22:35:57.225Z,8.60
2017-12-14T22:38:25.092Z,13.70
2017-12-14T22:40:53.055Z,8.87
2017-12-14T22:43:20.914Z,8.10
2017-12-14T22:45:49.867Z,12.90
2017-12-14T22:48:17.765Z,10.93
2017-12-14T22:50:45.721Z,10.70
2017-12-14T22:53:13.587Z,9.90
2017-12-14T22:55:41.596Z,9.10
2017-12-14T22:58:10.599Z,6.60
2017-12-14T23:00:38.670Z,11.10
2017-12-14T23:03:06.646Z,7.37
2017-12-14T23:05:34.550Z,8.13
2017-12-14T23:08:02.479Z,7.60
2017-12-14T23:10:30.417Z,11.30
2017-12-14T23:12:58.313Z,8.97
2017-12-14T23:15:26.180Z,6.13
2017-12-14T23:17:54.141Z,6.57
2017-12-14T23:20:21.993Z,6.47
2017-12-14T23:22:49.913Z,13.17
2017-12-14T23:25:17.846Z,3.80
2017-12-14T23:27:45.806Z,9.67
2017-12-14T23:30:13.765Z,6.30
2017-12-14T23:32:41.783Z,9.23
2017-12-14T23:35:09.701Z,7.43
2017-12-14T23:37:37.580Z,8.00
2017-12-14T23:40:05.545Z,4.90
2017-12-14T23:42:33.466Z,2.50
2017-12-14T23:45:01.367Z,6.50
2017-12-14T23:47:29.314Z,4.90
2017-12-14T23:49:57.201Z,3.60
2017-12-14T23:52:25.074Z,3.93
2017-12-14T23:54:52.997Z,5.07
2017-12-14T23:57:21.041Z,8.47
2017-12-14T23:59:49.002Z,6.30
